Buda, Texas
Current Conditions -  °F | °C
As of 6:53 AM on Saturday 20 Dec 2014 (Local Time) from KAUS Reporting Station
Overcast Overcast  
Wind Chill: 47°   Ceiling: 1600
Heat Index: 49°   Visibility: 10mi
Dew Point: 45°   Wind: 6mph
Humidity: 86%   Direction: 350°N
Pressure: 30.21"   Gusts: NA
Location:  30.09°N, 97.84°W
Report Text: KAUS 201253Z 35005KT 10SM OVC016 09/07 A3021 RMK AO2 DZB1158E20 SLP234 P0000 T00940072
Loading
Personal Weather Stations






























Interactive Weather Map New forecast layout! Learn more

10-Day Weather Forecast

Advertisements
Track Severe Weather on mobile